createdAt,value
2017-09-07T00:00:04.315Z,16.4
2017-09-07T00:01:06.708Z,16.4
2017-09-07T00:02:09.100Z,16.4
2017-09-07T00:03:11.494Z,16.4
2017-09-07T00:04:13.887Z,16.4
2017-09-07T00:05:16.276Z,16.4
2017-09-07T00:06:18.673Z,16.4
2017-09-07T00:07:21.069Z,16.4
2017-09-07T00:08:23.455Z,16.4
2017-09-07T00:09:25.845Z,16.4
2017-09-07T00:10:28.241Z,16.3
2017-09-07T00:11:30.633Z,16.3
2017-09-07T00:12:33.367Z,16.3
2017-09-07T00:13:35.788Z,16.3
2017-09-07T00:14:38.152Z,16.3
2017-09-07T00:15:40.551Z,16.3
2017-09-07T00:16:42.938Z,16.2
2017-09-07T00:17:45.336Z,16.2
2017-09-07T00:18:47.731Z,16.2
2017-09-07T00:19:50.117Z,16.2
2017-09-07T00:20:52.513Z,16.2
2017-09-07T00:21:54.920Z,16.2
2017-09-07T00:22:57.310Z,16.1
2017-09-07T00:23:59.702Z,16.1
2017-09-07T00:25:02.446Z,16.1
2017-09-07T00:26:04.836Z,16.1
2017-09-07T00:27:07.229Z,16.1
2017-09-07T00:28:09.620Z,16.1
2017-09-07T00:29:12.017Z,16.1
2017-09-07T00:30:14.414Z,16.1
2017-09-07T00:31:16.797Z,16.1
2017-09-07T00:32:19.193Z,16.1
2017-09-07T00:33:21.590Z,16.1
2017-09-07T00:34:23.972Z,16.1
2017-09-07T00:35:26.368Z,16.1
2017-09-07T00:36:28.766Z,16.1
2017-09-07T00:37:31.152Z,16.1
2017-09-07T00:38:33.545Z,16.1
2017-09-07T00:39:35.932Z,16.2
2017-09-07T00:40:38.323Z,16.1
2017-09-07T00:41:40.722Z,16.1
2017-09-07T00:42:43.115Z,16.1
2017-09-07T00:43:45.504Z,16.2
2017-09-07T00:44:47.890Z,16.2
2017-09-07T00:45:50.289Z,16.2
2017-09-07T00:46:53.016Z,16.2
2017-09-07T00:47:55.408Z,16.2
2017-09-07T00:48:58.148Z,16.2
2017-09-07T00:50:00.531Z,16.2
2017-09-07T00:51:02.930Z,16.2
2017-09-07T00:52:05.323Z,16.3
2017-09-07T00:53:07.705Z,16.3
2017-09-07T00:54:10.097Z,16.3
2017-09-07T00:55:12.491Z,16.3
2017-09-07T00:56:14.874Z,16.3
2017-09-07T00:57:17.270Z,16.4
2017-09-07T00:58:19.652Z,16.4
2017-09-07T00:59:22.047Z,16.4
2017-09-07T01:00:24.441Z,16.4
2017-09-07T01:01:26.834Z,16.4
2017-09-07T01:02:29.230Z,16.4
2017-09-07T01:03:31.629Z,16.4
2017-09-07T01:04:34.012Z,16.4
2017-09-07T01:05:36.408Z,16.4
2017-09-07T01:06:39.137Z,16.4
2017-09-07T01:07:41.519Z,16.4
2017-09-07T01:08:43.912Z,16.4
2017-09-07T01:09:46.306Z,16.4
2017-09-07T01:10:48.697Z,16.4
2017-09-07T01:11:51.090Z,16.4
2017-09-07T01:12:53.483Z,16.4
2017-09-07T01:13:55.873Z,16.4
2017-09-07T01:14:58.257Z,16.4
2017-09-07T01:16:00.650Z,16.4
2017-09-07T01:17:03.042Z,16.4
2017-09-07T01:18:05.430Z,16.4
2017-09-07T01:19:07.829Z,16.4
2017-09-07T01:20:10.223Z,16.3
2017-09-07T01:21:12.614Z,16.4
2017-09-07T01:22:15.369Z,16.3
2017-09-07T01:23:17.761Z,16.4
2017-09-07T01:24:20.148Z,16.3
2017-09-07T01:25:22.538Z,16.3
2017-09-07T01:26:24.927Z,16.3
2017-09-07T01:27:27.323Z,16.3
2017-09-07T01:28:29.713Z,16.3
2017-09-07T01:29:32.096Z,16.3
2017-09-07T01:30:34.487Z,16.3
2017-09-07T01:31:36.882Z,16.3
2017-09-07T01:32:39.271Z,16.3
2017-09-07T01:33:41.669Z,16.3
2017-09-07T01:34:44.062Z,16.3
2017-09-07T01:35:46.452Z,16.3
2017-09-07T01:36:48.846Z,16.4
2017-09-07T01:37:51.238Z,16.4
2017-09-07T01:38:53.631Z,16.4
2017-09-07T01:39:56.028Z,16.4
2017-09-07T01:40:58.419Z,16.4
2017-09-07T01:42:00.815Z,16.4
2017-09-07T01:43:03.200Z,16.4
2017-09-07T01:44:05.588Z,16.4
2017-09-07T01:45:07.993Z,16.4
2017-09-07T01:46:10.386Z,16.4
2017-09-07T01:47:12.779Z,16.4
2017-09-07T01:48:15.180Z,16.4
2017-09-07T01:49:17.572Z,16.4
2017-09-07T01:50:19.965Z,16.4
2017-09-07T01:51:22.362Z,16.4
2017-09-07T01:52:24.745Z,16.4
2017-09-07T01:53:27.132Z,16.3
2017-09-07T01:54:29.523Z,16.4
2017-09-07T01:55:31.909Z,16.4
2017-09-07T01:56:34.306Z,16.4
2017-09-07T01:57:36.699Z,16.4
2017-09-07T01:58:39.085Z,16.4
2017-09-07T01:59:41.482Z,16.4
2017-09-07T02:00:43.877Z,16.4
2017-09-07T02:01:46.266Z,16.4
2017-09-07T02:02:48.666Z,16.4
2017-09-07T02:03:51.055Z,16.4
2017-09-07T02:04:53.448Z,16.4
2017-09-07T02:05:55.844Z,16.4
2017-09-07T02:06:58.233Z,16.4
2017-09-07T02:08:00.624Z,16.4
2017-09-07T02:09:03.021Z,16.4
2017-09-07T02:10:05.410Z,16.4
2017-09-07T02:11:07.802Z,16.4
2017-09-07T02:12:10.199Z,16.4
2017-09-07T02:13:12.582Z,16.4
2017-09-07T02:14:14.975Z,16.4
2017-09-07T02:15:17.366Z,16.4
2017-09-07T02:16:19.764Z,16.4
2017-09-07T02:17:22.155Z,16.4
2017-09-07T02:18:24.884Z,16.4
2017-09-07T02:19:27.279Z,16.4
2017-09-07T02:20:29.673Z,16.4
2017-09-07T02:21:32.066Z,16.4
2017-09-07T02:22:34.463Z,16.4
2017-09-07T02:23:36.842Z,16.4
2017-09-07T02:24:39.237Z,16.4
2017-09-07T02:25:41.634Z,16.4
2017-09-07T02:26:44.032Z,16.4
2017-09-07T02:27:46.417Z,16.4
2017-09-07T02:28:48.803Z,16.4
2017-09-07T02:29:51.189Z,16.4
2017-09-07T02:30:53.589Z,16.3
2017-09-07T02:31:55.980Z,16.3
2017-09-07T02:32:58.371Z,16.3
2017-09-07T02:34:00.764Z,16.3
2017-09-07T02:35:03.167Z,16.3
2017-09-07T02:36:05.558Z,16.3
2017-09-07T02:37:07.955Z,16.2
2017-09-07T02:38:10.338Z,16.3
2017-09-07T02:39:12.731Z,16.2
2017-09-07T02:40:15.127Z,16.2
2017-09-07T02:41:17.512Z,16.2
2017-09-07T02:42:19.909Z,16.2
2017-09-07T02:43:22.304Z,16.2
2017-09-07T02:44:24.696Z,16.2
2017-09-07T02:45:27.084Z,16.2
2017-09-07T02:46:29.470Z,16.2
2017-09-07T02:47:31.861Z,16.2
2017-09-07T02:48:34.256Z,16.2
2017-09-07T02:49:36.642Z,16.2
2017-09-07T02:50:39.038Z,16.2
2017-09-07T02:51:41.431Z,16.2
2017-09-07T02:52:43.826Z,16.2
2017-09-07T02:53:46.220Z,16.2
2017-09-07T02:54:48.614Z,16.2
2017-09-07T02:55:51.002Z,16.2
2017-09-07T02:56:53.399Z,16.2
2017-09-07T02:57:55.791Z,16.2
2017-09-07T02:58:58.182Z,16.2
2017-09-07T03:00:00.575Z,16.2
2017-09-07T03:01:02.963Z,16.1
2017-09-07T03:02:05.361Z,16.1
2017-09-07T03:03:08.096Z,16.1
2017-09-07T03:04:10.479Z,16.1
2017-09-07T03:05:12.868Z,16.1
2017-09-07T03:06:15.259Z,16.1
2017-09-07T03:07:17.651Z,16.1
2017-09-07T03:08:20.040Z,16
2017-09-07T03:09:22.430Z,16
2017-09-07T03:10:24.825Z,16
2017-09-07T03:11:27.208Z,16
2017-09-07T03:12:29.600Z,16
2017-09-07T03:13:32.004Z,16
2017-09-07T03:14:34.390Z,16
2017-09-07T03:15:36.804Z,16
2017-09-07T03:16:39.164Z,16
2017-09-07T03:17:41.562Z,15.9
2017-09-07T03:18:43.960Z,15.9
2017-09-07T03:19:46.349Z,15.9
2017-09-07T03:20:48.733Z,15.9
2017-09-07T03:21:51.132Z,15.9
2017-09-07T03:22:53.525Z,15.9
2017-09-07T03:23:55.922Z,15.9
2017-09-07T03:24:58.316Z,15.9
2017-09-07T03:26:00.699Z,15.9
2017-09-07T03:27:03.426Z,15.8
2017-09-07T03:28:06.518Z,15.8
2017-09-07T03:29:08.887Z,15.8
2017-09-07T03:30:11.275Z,15.8
2017-09-07T03:31:13.666Z,15.8
2017-09-07T03:32:16.068Z,15.8
2017-09-07T03:33:18.462Z,15.8
2017-09-07T03:34:20.856Z,15.8
2017-09-07T03:35:23.236Z,15.8
2017-09-07T03:36:25.636Z,15.8
2017-09-07T03:37:28.024Z,15.8
2017-09-07T03:38:30.420Z,15.8
2017-09-07T03:39:32.805Z,15.8
2017-09-07T03:40:35.185Z,15.8
2017-09-07T03:41:37.578Z,15.8
2017-09-07T03:42:39.968Z,15.8
2017-09-07T03:43:42.356Z,15.9
2017-09-07T03:44:44.759Z,15.9
2017-09-07T03:45:47.489Z,15.9
2017-09-07T03:46:49.866Z,15.9
2017-09-07T03:47:52.269Z,15.9
2017-09-07T03:48:54.662Z,15.9
2017-09-07T03:49:57.060Z,15.9
2017-09-07T03:50:59.789Z,15.9
2017-09-07T03:52:02.175Z,16
2017-09-07T03:53:04.571Z,16
2017-09-07T03:54:06.971Z,15.9
2017-09-07T03:55:09.711Z,15.9
2017-09-07T03:56:12.104Z,16
2017-09-07T03:57:14.495Z,16
2017-09-07T03:58:16.884Z,16
2017-09-07T03:59:19.289Z,16
2017-09-07T04:00:22.021Z,16
2017-09-07T04:01:24.404Z,16
2017-09-07T04:02:26.804Z,16
2017-09-07T04:03:29.190Z,16
2017-09-07T04:04:31.583Z,16.1
2017-09-07T04:05:33.974Z,16.1
2017-09-07T04:06:36.699Z,16.1
2017-09-07T04:07:39.122Z,16.1
2017-09-07T04:08:41.494Z,16.1
2017-09-07T04:09:43.885Z,16.1
2017-09-07T04:10:46.275Z,16.1
2017-09-07T04:11:48.665Z,16.1
2017-09-07T04:12:51.066Z,16.1
2017-09-07T04:13:53.458Z,16.2
2017-09-07T04:14:55.853Z,16.1
2017-09-07T04:15:58.242Z,16.2
2017-09-07T04:17:00.631Z,16.2
2017-09-07T04:18:03.024Z,16.2
2017-09-07T04:19:05.421Z,16.1
2017-09-07T04:20:07.809Z,16.1
2017-09-07T04:21:10.557Z,16.2
2017-09-07T04:22:12.953Z,16.2
2017-09-07T04:23:15.341Z,16.1
2017-09-07T04:24:17.730Z,16.1
2017-09-07T04:25:20.130Z,16.1
2017-09-07T04:26:22.521Z,16.1
2017-09-07T04:27:24.947Z,16.1
2017-09-07T04:28:27.311Z,16.1
2017-09-07T04:29:29.704Z,16.1
2017-09-07T04:30:32.095Z,16.1
2017-09-07T04:31:34.483Z,16.1
2017-09-07T04:32:37.234Z,16.2
2017-09-07T04:33:39.623Z,16.2
2017-09-07T04:34:42.009Z,16.2
2017-09-07T04:35:44.402Z,16.2
2017-09-07T04:36:46.797Z,16.2
2017-09-07T04:37:49.188Z,16.2
2017-09-07T04:38:51.587Z,16.2
2017-09-07T04:39:53.987Z,16.2
2017-09-07T04:40:56.377Z,16.2
2017-09-07T04:41:58.765Z,16.2
2017-09-07T04:43:01.155Z,16.2
2017-09-07T04:44:03.555Z,16.3
2017-09-07T04:45:05.949Z,16.3
2017-09-07T04:46:08.344Z,16.2
2017-09-07T04:47:10.733Z,16.3
2017-09-07T04:48:13.131Z,16.2
2017-09-07T04:49:15.525Z,16.2
2017-09-07T04:50:17.919Z,16.2
2017-09-07T04:51:20.301Z,16.2
2017-09-07T04:52:22.693Z,16.2
2017-09-07T04:53:25.091Z,16.2
2017-09-07T04:54:27.482Z,16.2
2017-09-07T04:55:29.880Z,16.3
2017-09-07T04:56:32.270Z,16.2
2017-09-07T04:57:34.662Z,16.2
2017-09-07T04:58:37.055Z,16.2
2017-09-07T04:59:39.448Z,16.2
2017-09-07T05:00:41.832Z,16.2
2017-09-07T05:01:44.232Z,16.2
2017-09-07T05:02:46.615Z,16.2
2017-09-07T05:03:49.007Z,16.2
2017-09-07T05:04:51.401Z,16.2
2017-09-07T05:05:54.132Z,16.2
2017-09-07T05:06:56.529Z,16.2
2017-09-07T05:07:58.928Z,16.2
2017-09-07T05:09:01.318Z,16.2
2017-09-07T05:10:04.385Z,16.2
2017-09-07T05:11:06.774Z,16.2
2017-09-07T05:12:09.164Z,16.2
2017-09-07T05:13:11.890Z,16.2
2017-09-07T05:14:14.283Z,16.2
2017-09-07T05:15:16.691Z,16.2
2017-09-07T05:16:19.076Z,16.2
2017-09-07T05:17:21.464Z,16.3
2017-09-07T05:18:23.855Z,16.3
2017-09-07T05:19:26.246Z,16.3
2017-09-07T05:20:28.638Z,16.3
2017-09-07T05:21:31.032Z,16.3
2017-09-07T05:22:33.418Z,16.4
2017-09-07T05:23:35.814Z,16.4
2017-09-07T05:24:38.208Z,16.4
2017-09-07T05:25:40.599Z,16.4
2017-09-07T05:26:42.989Z,16.4
2017-09-07T05:27:45.381Z,16.4
2017-09-07T05:28:47.770Z,16.5
2017-09-07T05:29:50.167Z,16.5
2017-09-07T05:30:52.556Z,16.5
2017-09-07T05:31:54.947Z,16.5
2017-09-07T05:32:57.344Z,16.5
2017-09-07T05:33:59.727Z,16.5
2017-09-07T05:35:02.120Z,16.5
2017-09-07T05:36:05.208Z,16.5
2017-09-07T05:37:07.600Z,16.5
2017-09-07T05:38:09.991Z,16.5
2017-09-07T05:39:12.395Z,16.5
2017-09-07T05:40:14.785Z,16.5
2017-09-07T05:41:17.170Z,16.5
2017-09-07T05:42:19.559Z,16.5
2017-09-07T05:43:21.965Z,16.5
2017-09-07T05:44:24.358Z,16.5
2017-09-07T05:45:26.757Z,16.6
2017-09-07T05:46:29.145Z,16.6
2017-09-07T05:47:31.566Z,16.6
2017-09-07T05:48:33.934Z,16.7
2017-09-07T05:49:36.665Z,16.6
2017-09-07T05:50:39.043Z,16.7
2017-09-07T05:51:41.438Z,16.7
2017-09-07T05:52:43.831Z,16.7
2017-09-07T05:53:46.218Z,16.7
2017-09-07T05:54:48.608Z,16.8
2017-09-07T05:55:51.008Z,16.8
2017-09-07T05:56:53.392Z,16.8
2017-09-07T05:57:55.795Z,16.8
2017-09-07T05:58:58.186Z,16.8
2017-09-07T06:00:00.581Z,16.8
2017-09-07T06:01:02.980Z,16.8
2017-09-07T06:02:05.368Z,16.8
2017-09-07T06:03:07.756Z,16.8
2017-09-07T06:04:10.489Z,16.8
2017-09-07T06:05:12.879Z,16.8
2017-09-07T06:06:15.618Z,16.8
2017-09-07T06:07:18.357Z,16.9
2017-09-07T06:08:21.096Z,16.9
2017-09-07T06:09:23.489Z,16.9
2017-09-07T06:10:25.884Z,16.9
2017-09-07T06:11:28.277Z,16.9
2017-09-07T06:12:30.671Z,16.9
2017-09-07T06:13:33.061Z,16.9
2017-09-07T06:14:35.458Z,16.9
2017-09-07T06:15:37.842Z,16.9
2017-09-07T06:16:40.609Z,16.9
2017-09-07T06:17:43.000Z,16.9
2017-09-07T06:18:45.389Z,17
2017-09-07T06:19:47.778Z,17
2017-09-07T06:20:50.175Z,17
2017-09-07T06:21:52.558Z,17
2017-09-07T06:22:54.960Z,17
2017-09-07T06:23:57.344Z,17
2017-09-07T06:24:59.739Z,17
2017-09-07T06:26:02.141Z,17
2017-09-07T06:27:04.543Z,17
2017-09-07T06:28:06.934Z,17
2017-09-07T06:29:09.327Z,17.1
2017-09-07T06:30:11.740Z,17.1
2017-09-07T06:31:14.118Z,17.1
2017-09-07T06:32:16.512Z,17.2
2017-09-07T06:33:18.897Z,17.2
2017-09-07T06:34:21.298Z,17.2
2017-09-07T06:35:23.697Z,17.2
2017-09-07T06:36:26.096Z,17.3
2017-09-07T06:37:28.496Z,17.4
2017-09-07T06:38:30.894Z,17.4
2017-09-07T06:39:33.287Z,17.4
2017-09-07T06:40:35.682Z,17.5
2017-09-07T06:41:38.077Z,17.5
2017-09-07T06:42:40.475Z,17.6
2017-09-07T06:43:42.874Z,17.6
2017-09-07T06:44:45.260Z,17.7
2017-09-07T06:45:47.660Z,17.7
2017-09-07T06:46:50.063Z,17.8
2017-09-07T06:47:52.461Z,17.8
2017-09-07T06:48:54.852Z,17.9
2017-09-07T06:49:57.252Z,18
2017-09-07T06:50:59.647Z,18
2017-09-07T06:52:02.045Z,18
2017-09-07T06:53:04.445Z,18
2017-09-07T06:54:06.839Z,18.1
2017-09-07T06:55:09.234Z,18.1
2017-09-07T06:56:11.626Z,18.1
2017-09-07T06:57:14.014Z,18.2
2017-09-07T06:58:16.412Z,18.2
2017-09-07T06:59:18.817Z,18.3
2017-09-07T07:00:21.212Z,18.3
2017-09-07T07:01:23.605Z,18.3
2017-09-07T07:02:25.998Z,18.4
2017-09-07T07:03:28.396Z,18.4
2017-09-07T07:04:30.798Z,18.5
2017-09-07T07:05:33.199Z,18.5
2017-09-07T07:06:35.588Z,18.6
2017-09-07T07:07:37.992Z,18.7
2017-09-07T07:08:40.394Z,18.7
2017-09-07T07:09:42.797Z,18.8
2017-09-07T07:10:45.191Z,18.8
2017-09-07T07:11:47.600Z,18.9
2017-09-07T07:12:49.996Z,18.9
2017-09-07T07:13:52.727Z,19
2017-09-07T07:14:55.127Z,19
2017-09-07T07:15:57.530Z,19
2017-09-07T07:16:59.924Z,19.1
2017-09-07T07:18:02.319Z,19.1
2017-09-07T07:19:04.707Z,19.1
2017-09-07T07:20:07.104Z,19.1
2017-09-07T07:21:09.511Z,19.2
2017-09-07T07:22:12.260Z,19.2
2017-09-07T07:23:14.669Z,19.2
2017-09-07T07:24:17.065Z,19.2
2017-09-07T07:25:19.458Z,19.3
2017-09-07T07:26:21.849Z,19.3
2017-09-07T07:27:24.246Z,19.3
2017-09-07T07:28:26.642Z,19.3
2017-09-07T07:29:29.049Z,19.4
2017-09-07T07:30:31.434Z,19.4
2017-09-07T07:31:33.832Z,19.4
2017-09-07T07:32:36.225Z,19.4
2017-09-07T07:33:38.628Z,19.3
2017-09-07T07:34:41.026Z,19.4
2017-09-07T07:35:43.438Z,19.3
2017-09-07T07:36:45.834Z,19.4
2017-09-07T07:37:48.225Z,19.4
2017-09-07T07:38:50.622Z,19.4
2017-09-07T07:39:53.024Z,19.4
2017-09-07T07:40:55.421Z,19.5
2017-09-07T07:41:57.812Z,19.5
2017-09-07T07:43:00.205Z,19.5
2017-09-07T07:44:02.595Z,19.5
2017-09-07T07:45:05.006Z,19.5
2017-09-07T07:46:07.403Z,19.5
2017-09-07T07:47:09.801Z,19.5
2017-09-07T07:48:12.206Z,19.5
2017-09-07T07:49:14.600Z,19.5
2017-09-07T07:50:17.002Z,19.5
2017-09-07T07:51:19.758Z,19.5
2017-09-07T07:52:22.156Z,19.6
2017-09-07T07:53:24.551Z,19.6
2017-09-07T07:54:26.962Z,19.6
2017-09-07T07:55:29.360Z,19.6
2017-09-07T07:56:31.760Z,19.7
2017-09-07T07:57:34.154Z,19.7
2017-09-07T07:58:36.555Z,19.8
2017-09-07T07:59:38.954Z,19.8
2017-09-07T08:00:41.354Z,19.8
2017-09-07T08:01:43.747Z,19.9
2017-09-07T08:02:46.151Z,19.9
2017-09-07T08:03:48.548Z,19.9
2017-09-07T08:04:51.290Z,19.9
2017-09-07T08:05:53.682Z,19.9
2017-09-07T08:06:56.080Z,19.9
2017-09-07T08:07:58.481Z,19.9
2017-09-07T08:09:00.871Z,19.9
2017-09-07T08:10:03.274Z,19.8
2017-09-07T08:11:05.682Z,19.8
2017-09-07T08:12:08.078Z,19.7
2017-09-07T08:13:10.472Z,19.7
2017-09-07T08:14:13.219Z,19.6
2017-09-07T08:15:15.618Z,19.6
2017-09-07T08:16:18.020Z,19.6
2017-09-07T08:17:20.420Z,19.5
2017-09-07T08:18:23.162Z,19.4
2017-09-07T08:19:25.563Z,19.3
2017-09-07T08:20:27.961Z,19.3
2017-09-07T08:21:30.354Z,19.3
2017-09-07T08:22:32.770Z,19.2
2017-09-07T08:23:35.167Z,19.2
2017-09-07T08:24:37.565Z,19.2
2017-09-07T08:25:39.972Z,19.1
2017-09-07T08:26:42.704Z,19.1
2017-09-07T08:27:45.104Z,19.1
2017-09-07T08:28:47.506Z,19.1
2017-09-07T08:29:49.900Z,19.1
2017-09-07T08:30:52.298Z,19.1
2017-09-07T08:31:55.039Z,19.1
2017-09-07T08:32:57.427Z,19.1
2017-09-07T08:33:59.824Z,19.1
2017-09-07T08:35:02.233Z,19
2017-09-07T08:36:04.627Z,19
2017-09-07T08:37:07.022Z,19
2017-09-07T08:38:09.422Z,19
2017-09-07T08:39:11.816Z,19
2017-09-07T08:40:14.212Z,19.1
2017-09-07T08:41:16.610Z,19.1
2017-09-07T08:42:19.007Z,19.1
2017-09-07T08:43:23.004Z,19.1
2017-09-07T08:44:25.398Z,19.2
2017-09-07T08:45:27.795Z,19.2
2017-09-07T08:46:30.192Z,19.3
2017-09-07T08:47:32.731Z,19.3
2017-09-07T08:48:35.195Z,19.3
2017-09-07T08:49:37.599Z,19.4
2017-09-07T08:50:39.999Z,19.5
2017-09-07T08:51:42.384Z,19.6
2017-09-07T08:52:44.812Z,19.6
2017-09-07T08:53:47.617Z,19.6
2017-09-07T08:54:50.018Z,19.7
2017-09-07T08:55:52.418Z,19.7
2017-09-07T08:57:03.450Z,19.8
2017-09-07T08:58:16.825Z,19.8
2017-09-07T08:59:19.223Z,19.9
2017-09-07T09:00:22.306Z,19.9
2017-09-07T09:01:24.706Z,19.9
2017-09-07T09:02:27.103Z,19.9
2017-09-07T09:03:30.502Z,19.9
2017-09-07T09:04:35.460Z,20
2017-09-07T09:05:44.099Z,20
2017-09-07T09:06:59.080Z,20
2017-09-07T09:08:06.631Z,20.1
2017-09-07T09:09:12.183Z,20.1
2017-09-07T09:10:14.587Z,20.1
2017-09-07T09:11:16.983Z,20.2
2017-09-07T09:12:19.399Z,20.2
2017-09-07T09:13:21.803Z,20.2
2017-09-07T09:14:27.427Z,20.3
2017-09-07T09:15:29.863Z,20.3
2017-09-07T09:16:32.294Z,20.4
2017-09-07T09:17:34.690Z,20.4
2017-09-07T09:18:37.095Z,20.3
2017-09-07T09:19:39.509Z,20.3
2017-09-07T09:20:41.906Z,20.4
2017-09-07T09:21:44.305Z,20.4
2017-09-07T09:22:46.698Z,20.4
2017-09-07T09:23:49.091Z,20.4
2017-09-07T09:24:51.492Z,20.4
2017-09-07T09:25:53.885Z,20.4
2017-09-07T09:26:56.626Z,20.4
2017-09-07T09:27:59.046Z,20.4
2017-09-07T09:29:01.448Z,20.4
2017-09-07T09:30:03.847Z,20.4
2017-09-07T09:31:06.586Z,20.4
2017-09-07T09:32:08.985Z,20.4
2017-09-07T09:33:11.392Z,20.5
2017-09-07T09:34:13.788Z,20.5
2017-09-07T09:35:16.178Z,20.5
2017-09-07T09:36:18.577Z,20.5
2017-09-07T09:37:24.500Z,20.4
2017-09-07T09:38:34.135Z,20.5
2017-09-07T09:39:36.528Z,20.5
2017-09-07T09:40:38.923Z,20.5
2017-09-07T09:41:41.322Z,20.5
2017-09-07T09:42:43.722Z,20.6
2017-09-07T09:43:46.127Z,20.6
2017-09-07T09:44:48.521Z,20.6
2017-09-07T09:45:51.013Z,20.6
2017-09-07T09:46:53.757Z,20.6
2017-09-07T09:47:56.151Z,20.5
2017-09-07T09:48:58.548Z,20.6
2017-09-07T09:50:01.284Z,20.6
2017-09-07T09:51:03.677Z,20.6
2017-09-07T09:52:06.087Z,20.7
2017-09-07T09:53:08.483Z,20.7
2017-09-07T09:54:11.214Z,20.8
2017-09-07T09:55:13.609Z,20.8
2017-09-07T09:56:16.013Z,20.8
2017-09-07T09:57:18.409Z,20.9
2017-09-07T09:58:20.815Z,21
2017-09-07T09:59:23.196Z,21
2017-09-07T10:00:25.940Z,21
2017-09-07T10:01:28.348Z,21.1
2017-09-07T10:02:30.744Z,21.1
2017-09-07T10:03:33.147Z,21.2
2017-09-07T10:04:35.550Z,21.2
2017-09-07T10:05:37.941Z,21.3
2017-09-07T10:06:40.337Z,21.3
2017-09-07T10:07:42.736Z,21.4
2017-09-07T10:08:45.146Z,21.4
2017-09-07T10:09:47.564Z,21.4
2017-09-07T10:10:49.951Z,21.5
2017-09-07T10:11:52.356Z,21.6
2017-09-07T10:12:54.758Z,21.6
2017-09-07T10:13:57.161Z,21.7
2017-09-07T10:14:59.558Z,21.8
2017-09-07T10:16:01.955Z,21.9
2017-09-07T10:17:04.352Z,22
2017-09-07T10:18:06.764Z,22.1
2017-09-07T10:19:09.164Z,22.2
2017-09-07T10:20:11.565Z,22.3
2017-09-07T10:21:13.970Z,22.4
2017-09-07T10:22:16.364Z,22.4
2017-09-07T10:23:18.772Z,22.5
2017-09-07T10:24:21.174Z,22.5
2017-09-07T10:25:23.592Z,22.5
2017-09-07T10:26:25.968Z,22.6
2017-09-07T10:27:28.372Z,22.6
2017-09-07T10:28:30.776Z,22.6
2017-09-07T10:29:33.170Z,22.6
2017-09-07T10:30:35.570Z,22.6
2017-09-07T10:31:37.971Z,22.6
2017-09-07T10:32:40.386Z,22.6
2017-09-07T10:33:42.787Z,22.6
2017-09-07T10:34:45.521Z,22.5
2017-09-07T10:35:47.922Z,22.5
2017-09-07T10:36:50.315Z,22.5
2017-09-07T10:37:52.717Z,22.4
2017-09-07T10:38:55.118Z,22.4
2017-09-07T10:39:57.518Z,22.4
2017-09-07T10:40:59.919Z,22.4
2017-09-07T10:42:02.335Z,22.4
2017-09-07T10:43:04.726Z,22.4
2017-09-07T10:44:07.140Z,22.4
2017-09-07T10:45:09.541Z,22.3
2017-09-07T10:46:11.939Z,22.3
2017-09-07T10:47:14.337Z,22.3
2017-09-07T10:48:16.740Z,22.3
2017-09-07T10:49:19.139Z,22.4
2017-09-07T10:50:21.547Z,22.5
2017-09-07T10:51:23.942Z,22.7
2017-09-07T10:52:26.346Z,22.8
2017-09-07T10:53:28.754Z,23
2017-09-07T10:54:31.146Z,23.1
2017-09-07T10:55:33.548Z,23.2
2017-09-07T10:56:35.964Z,23.3
2017-09-07T10:57:38.352Z,23.5
2017-09-07T10:58:40.759Z,23.6
2017-09-07T10:59:43.160Z,23.8
2017-09-07T11:00:45.558Z,23.9
2017-09-07T11:01:47.958Z,24.1
2017-09-07T11:02:50.362Z,24.3
2017-09-07T11:03:52.760Z,24.5
2017-09-07T11:04:55.168Z,24.8
2017-09-07T11:05:57.570Z,24.9
2017-09-07T11:06:59.974Z,25
2017-09-07T11:08:02.370Z,25.1
2017-09-07T11:09:04.775Z,25.2
2017-09-07T11:10:07.188Z,25.2
2017-09-07T11:11:09.594Z,25.1
2017-09-07T11:12:11.997Z,25
2017-09-07T11:13:14.405Z,25
2017-09-07T11:14:16.808Z,25.1
2017-09-07T11:15:19.217Z,25.1
2017-09-07T11:16:21.622Z,25.1
2017-09-07T11:17:24.349Z,25.1
2017-09-07T11:18:26.758Z,25.1
2017-09-07T11:19:29.168Z,25.1
2017-09-07T11:20:31.908Z,25.1
2017-09-07T11:21:34.661Z,25
2017-09-07T11:22:37.055Z,25
2017-09-07T11:23:39.456Z,24.8
2017-09-07T11:24:41.869Z,24.7
2017-09-07T11:25:44.612Z,24.6
2017-09-07T11:26:47.013Z,24.5
2017-09-07T11:27:49.415Z,24.4
2017-09-07T11:28:52.495Z,24.4
2017-09-07T11:29:54.898Z,24.4
2017-09-07T11:30:57.299Z,24.4
2017-09-07T11:32:00.034Z,24.5
2017-09-07T11:33:02.436Z,24.6
2017-09-07T11:34:04.846Z,24.7
2017-09-07T11:35:07.253Z,24.8
2017-09-07T11:36:09.989Z,24.9
2017-09-07T11:37:12.397Z,25
2017-09-07T11:38:14.799Z,25.1
2017-09-07T11:39:17.192Z,25.3
2017-09-07T11:40:19.602Z,25.4
2017-09-07T11:41:22.003Z,25.5
2017-09-07T11:42:24.404Z,25.7
2017-09-07T11:43:27.167Z,25.8
2017-09-07T11:44:29.571Z,25.9
2017-09-07T11:45:31.976Z,26
2017-09-07T11:46:34.384Z,26.1
2017-09-07T11:47:36.786Z,26.2
2017-09-07T11:48:39.192Z,26.3
2017-09-07T11:49:41.603Z,26.3
2017-09-07T11:50:44.006Z,26.4
2017-09-07T11:51:46.414Z,26.4
2017-09-07T11:52:48.819Z,26.5
2017-09-07T11:53:51.219Z,26.4
2017-09-07T11:54:53.627Z,26.4
2017-09-07T11:55:56.039Z,26.4
2017-09-07T11:56:58.440Z,26.3
2017-09-07T11:58:00.855Z,26.2
2017-09-07T11:59:03.391Z,26.1
2017-09-07T12:00:06.100Z,26
2017-09-07T12:01:08.514Z,25.9
2017-09-07T12:02:10.912Z,25.7
2017-09-07T12:03:13.316Z,25.6
2017-09-07T12:04:15.722Z,25.5
2017-09-07T12:05:18.138Z,25.4
2017-09-07T12:06:20.550Z,25.4
2017-09-07T12:07:22.952Z,25.4
2017-09-07T12:08:25.361Z,25.4
2017-09-07T12:09:27.764Z,25.4
2017-09-07T12:10:30.165Z,25.4
2017-09-07T12:11:32.570Z,25.4
2017-09-07T12:12:34.970Z,25.3
2017-09-07T12:13:37.375Z,25.3
2017-09-07T12:14:40.127Z,25.2
2017-09-07T12:15:42.527Z,25.1
2017-09-07T12:16:44.932Z,25.1
2017-09-07T12:17:47.331Z,25
2017-09-07T12:18:49.733Z,24.9
2017-09-07T12:19:52.145Z,24.8
2017-09-07T12:20:54.547Z,24.7
2017-09-07T12:21:56.943Z,24.5
2017-09-07T12:22:59.686Z,24.4
2017-09-07T12:24:02.082Z,24.3
2017-09-07T12:25:04.489Z,24.3
2017-09-07T12:26:06.898Z,24.2
2017-09-07T12:27:09.297Z,24.1
2017-09-07T12:28:11.701Z,24.1
2017-09-07T12:29:14.108Z,24.1
2017-09-07T12:30:16.509Z,24
2017-09-07T12:31:18.911Z,24
2017-09-07T12:32:21.310Z,24
2017-09-07T12:33:23.713Z,24
2017-09-07T12:34:26.113Z,24
2017-09-07T12:35:28.516Z,24
2017-09-07T12:36:30.929Z,24
2017-09-07T12:37:33.331Z,24
2017-09-07T12:38:35.728Z,24
2017-09-07T12:39:38.134Z,24.1
2017-09-07T12:40:40.881Z,24.1
2017-09-07T12:41:43.285Z,24.2
2017-09-07T12:42:45.685Z,24.3
2017-09-07T12:43:48.082Z,24.3
2017-09-07T12:44:50.821Z,24.3
2017-09-07T12:45:53.399Z,24.3
2017-09-07T12:46:55.953Z,24.2
2017-09-07T12:47:58.359Z,24.2
2017-09-07T12:49:00.807Z,24.1
2017-09-07T12:50:03.166Z,24
2017-09-07T12:51:05.579Z,23.9
2017-09-07T12:52:07.974Z,23.9
2017-09-07T12:53:10.374Z,23.8
2017-09-07T12:54:12.782Z,23.7
2017-09-07T12:55:15.184Z,23.7
2017-09-07T12:56:17.583Z,23.7
2017-09-07T12:57:19.990Z,23.7
2017-09-07T12:58:22.734Z,23.6
2017-09-07T12:59:25.134Z,23.6
2017-09-07T13:00:27.534Z,23.6
2017-09-07T13:01:29.938Z,23.6
2017-09-07T13:02:32.334Z,23.6
2017-09-07T13:03:34.731Z,23.7
2017-09-07T13:04:37.143Z,23.7
2017-09-07T13:05:39.891Z,23.7
2017-09-07T13:06:42.639Z,23.8
2017-09-07T13:07:45.043Z,23.8
2017-09-07T13:08:47.451Z,23.8
2017-09-07T13:09:49.848Z,23.8
2017-09-07T13:10:52.259Z,23.7
2017-09-07T13:11:54.991Z,23.8
2017-09-07T13:12:57.392Z,23.7
2017-09-07T13:13:59.793Z,23.7
2017-09-07T13:15:02.196Z,23.7
2017-09-07T13:16:04.603Z,23.6
2017-09-07T13:17:07.013Z,23.6
2017-09-07T13:18:09.412Z,23.7
2017-09-07T13:19:11.818Z,23.7
2017-09-07T13:20:14.219Z,23.7
2017-09-07T13:21:16.611Z,23.8
2017-09-07T13:22:19.017Z,23.9
2017-09-07T13:23:21.420Z,23.9
2017-09-07T13:24:24.160Z,23.9
2017-09-07T13:25:26.560Z,24
2017-09-07T13:26:28.961Z,24
2017-09-07T13:27:31.378Z,24
2017-09-07T13:28:33.787Z,24
2017-09-07T13:29:36.190Z,24.1
2017-09-07T13:30:38.598Z,24.1
2017-09-07T13:31:41.003Z,24.1
2017-09-07T13:32:43.410Z,24.2
2017-09-07T13:33:45.809Z,24.3
2017-09-07T13:34:48.218Z,24.4
2017-09-07T13:35:50.618Z,24.5
2017-09-07T13:36:53.025Z,24.6
2017-09-07T13:37:55.422Z,24.7
2017-09-07T13:38:57.831Z,24.8
2017-09-07T13:40:00.240Z,24.9
2017-09-07T13:41:02.989Z,25
2017-09-07T13:42:05.386Z,25
2017-09-07T13:43:07.792Z,25
2017-09-07T13:44:10.191Z,25
2017-09-07T13:45:12.603Z,25
2017-09-07T13:46:15.005Z,24.9
2017-09-07T13:47:17.405Z,24.8
2017-09-07T13:48:19.817Z,24.8
2017-09-07T13:49:23.890Z,24.7
2017-09-07T13:50:28.132Z,24.6
2017-09-07T13:51:30.538Z,24.5
2017-09-07T13:52:32.939Z,24.5
2017-09-07T13:53:35.347Z,24.5
2017-09-07T13:54:38.129Z,24.5
2017-09-07T13:55:40.525Z,24.7
2017-09-07T13:56:42.936Z,24.7